createdAt,value
2023-12-23T00:02:09.678Z,3.00
2023-12-23T00:04:36.245Z,2.97
2023-12-23T00:07:02.758Z,2.91
2023-12-23T00:09:29.245Z,2.94
2023-12-23T00:11:55.809Z,3.13
2023-12-23T00:14:22.423Z,3.05
2023-12-23T00:16:48.950Z,3.14
2023-12-23T00:19:15.622Z,3.14
2023-12-23T00:21:42.192Z,3.27
2023-12-23T00:24:08.982Z,3.52
2023-12-23T00:26:35.457Z,3.00
2023-12-23T00:29:01.950Z,2.83
2023-12-23T00:31:28.435Z,3.16
2023-12-23T00:33:55.019Z,2.88
2023-12-23T00:36:21.541Z,2.74
2023-12-23T00:38:48.133Z,3.34
2023-12-23T00:41:14.738Z,3.10
2023-12-23T00:43:41.580Z,2.87
2023-12-23T00:46:11.499Z,2.92
2023-12-23T00:48:39.211Z,3.05
2023-12-23T00:51:06.943Z,3.26
2023-12-23T00:53:33.477Z,2.88
2023-12-23T00:56:00.698Z,3.14
2023-12-23T00:58:27.420Z,3.12
2023-12-23T01:00:54.105Z,3.04
2023-12-23T01:03:20.605Z,3.01
2023-12-23T01:05:47.112Z,3.01
2023-12-23T01:08:13.615Z,2.72
2023-12-23T01:10:40.148Z,2.88
2023-12-23T01:13:06.734Z,2.91
2023-12-23T01:15:33.536Z,3.06
2023-12-23T01:18:00.211Z,3.30
2023-12-23T01:20:26.945Z,2.90
2023-12-23T01:22:53.510Z,3.27
2023-12-23T01:25:21.655Z,3.26
2023-12-23T01:27:48.385Z,3.15
2023-12-23T01:30:15.089Z,3.49
2023-12-23T01:32:41.623Z,3.39
2023-12-23T01:35:08.602Z,3.27
2023-12-23T01:37:35.167Z,3.46
2023-12-23T01:40:01.704Z,3.25
2023-12-23T01:42:28.237Z,3.21
2023-12-23T01:44:54.716Z,3.49
2023-12-23T01:47:21.660Z,3.35
2023-12-23T01:49:49.300Z,3.30
2023-12-23T01:52:16.377Z,3.44
2023-12-23T01:54:43.166Z,3.39
2023-12-23T01:57:09.797Z,3.59
2023-12-23T01:59:36.547Z,3.35
2023-12-23T02:02:03.267Z,3.41
2023-12-23T02:04:29.887Z,3.39
2023-12-23T02:06:56.385Z,3.41
2023-12-23T02:09:23.043Z,3.45
2023-12-23T02:12:08.127Z,3.36
2023-12-23T02:14:46.441Z,3.19
2023-12-23T02:17:13.881Z,3.39
2023-12-23T02:19:40.389Z,3.44
2023-12-23T02:22:06.882Z,3.88
2023-12-23T02:24:33.624Z,3.76
2023-12-23T02:27:08.284Z,3.78
2023-12-23T02:29:34.917Z,4.06
2023-12-23T02:32:02.934Z,3.57
2023-12-23T02:34:30.337Z,3.54
2023-12-23T02:36:56.847Z,3.85
2023-12-23T02:39:23.312Z,3.85
2023-12-23T02:41:50.130Z,3.72
2023-12-23T02:44:16.692Z,4.07
2023-12-23T02:46:43.257Z,4.11
2023-12-23T02:49:09.888Z,3.91
2023-12-23T02:51:36.382Z,3.98
2023-12-23T02:54:02.882Z,3.88
2023-12-23T02:56:30.601Z,4.14
2023-12-23T02:58:57.097Z,3.78
2023-12-23T03:01:23.745Z,3.76
2023-12-23T03:03:50.229Z,3.69
2023-12-23T03:06:16.786Z,4.32
2023-12-23T03:08:43.336Z,4.01
2023-12-23T03:11:10.283Z,4.06
2023-12-23T03:13:36.817Z,3.90
2023-12-23T03:16:03.564Z,3.86
2023-12-23T03:18:30.139Z,3.77
2023-12-23T03:20:56.646Z,3.84
2023-12-23T03:23:23.404Z,4.05
2023-12-23T03:25:50.412Z,4.02
2023-12-23T03:28:17.022Z,3.90
2023-12-23T03:30:43.528Z,4.03
2023-12-23T03:33:10.159Z,4.10
2023-12-23T03:35:38.787Z,4.14
2023-12-23T03:38:05.439Z,4.30
2023-12-23T03:40:31.920Z,4.17
2023-12-23T03:42:58.391Z,4.15
2023-12-23T03:45:24.853Z,4.01
2023-12-23T03:47:51.479Z,4.08
2023-12-23T03:50:18.304Z,4.26
2023-12-23T03:52:44.950Z,4.48
2023-12-23T03:55:12.652Z,4.37
2023-12-23T03:57:39.116Z,4.41
2023-12-23T04:00:06.374Z,4.33
2023-12-23T04:02:32.837Z,4.45
2023-12-23T04:04:59.395Z,4.36
2023-12-23T04:07:25.958Z,4.50
2023-12-23T04:09:52.521Z,4.19
2023-12-23T04:12:19.010Z,4.30
2023-12-23T04:14:45.481Z,4.12
2023-12-23T04:17:12.752Z,4.17
2023-12-23T04:19:39.288Z,4.22
2023-12-23T04:22:05.773Z,4.04
2023-12-23T04:24:32.304Z,3.98
2023-12-23T04:26:58.811Z,4.12
2023-12-23T04:29:25.475Z,4.04
2023-12-23T04:31:52.098Z,4.13
2023-12-23T04:34:18.724Z,4.21
2023-12-23T04:36:45.220Z,4.13
2023-12-23T04:39:11.674Z,4.28
2023-12-23T04:41:38.186Z,4.29
2023-12-23T04:44:04.819Z,4.17
2023-12-23T04:46:31.384Z,3.86
2023-12-23T04:48:57.978Z,4.07
2023-12-23T04:51:24.536Z,3.88
2023-12-23T04:53:50.989Z,4.04
2023-12-23T04:56:17.670Z,4.15
2023-12-23T04:58:44.201Z,4.20
2023-12-23T05:01:10.777Z,4.01
2023-12-23T05:03:37.332Z,4.43
2023-12-23T05:06:04.539Z,4.31
2023-12-23T05:08:31.092Z,4.15
2023-12-23T05:10:57.602Z,4.56
2023-12-23T05:13:24.435Z,4.03
2023-12-23T05:15:51.729Z,4.47
2023-12-23T05:18:18.272Z,4.10
2023-12-23T05:20:44.855Z,4.03
2023-12-23T05:23:11.436Z,3.86
2023-12-23T05:25:38.017Z,4.11
2023-12-23T05:28:05.101Z,3.84
2023-12-23T05:30:31.684Z,3.51
2023-12-23T05:32:58.263Z,3.76
2023-12-23T05:35:24.834Z,3.87
2023-12-23T05:37:51.739Z,4.05
2023-12-23T05:40:18.314Z,3.84
2023-12-23T05:42:44.974Z,3.87
2023-12-23T05:45:11.577Z,3.97
2023-12-23T05:47:38.182Z,3.56
2023-12-23T05:50:05.470Z,3.60
2023-12-23T05:52:32.011Z,3.50
2023-12-23T05:54:58.645Z,3.54
2023-12-23T05:57:25.152Z,3.40
2023-12-23T05:59:51.662Z,3.68
2023-12-23T06:02:18.186Z,3.63
2023-12-23T06:04:44.687Z,3.72
2023-12-23T06:07:11.918Z,3.52
2023-12-23T06:09:38.438Z,3.70
2023-12-23T06:12:05.188Z,3.56
2023-12-23T06:14:32.176Z,3.56
2023-12-23T06:16:58.715Z,3.77
2023-12-23T06:19:25.268Z,3.75
2023-12-23T06:21:51.750Z,3.71
2023-12-23T06:24:18.239Z,3.56
2023-12-23T06:26:46.085Z,3.71
2023-12-23T06:29:13.258Z,3.75
2023-12-23T06:31:39.871Z,3.78
2023-12-23T06:34:06.521Z,3.97
2023-12-23T06:36:33.066Z,3.74
2023-12-23T06:38:59.533Z,3.50
2023-12-23T06:41:26.062Z,3.82
2023-12-23T06:43:53.606Z,3.59
2023-12-23T06:46:20.381Z,3.80
2023-12-23T06:48:47.050Z,3.71
2023-12-23T06:51:13.953Z,3.87
2023-12-23T06:53:40.492Z,3.54
2023-12-23T06:56:08.125Z,3.52
2023-12-23T06:58:34.967Z,3.47
2023-12-23T07:01:01.934Z,3.57
2023-12-23T07:03:28.455Z,3.88
2023-12-23T07:05:55.120Z,3.62
2023-12-23T07:08:21.728Z,3.94
2023-12-23T07:10:48.304Z,3.82
2023-12-23T07:13:14.932Z,4.07
2023-12-23T07:15:41.432Z,3.78
2023-12-23T07:18:09.042Z,4.18
2023-12-23T07:20:35.571Z,3.84
2023-12-23T07:23:02.086Z,4.40
2023-12-23T07:25:28.555Z,4.65
2023-12-23T07:27:55.074Z,4.41
2023-12-23T07:30:21.620Z,4.23
2023-12-23T07:32:48.360Z,4.23
2023-12-23T07:35:15.135Z,4.62
2023-12-23T07:37:41.937Z,4.31
2023-12-23T07:40:09.172Z,4.09
2023-12-23T07:42:35.792Z,4.50
2023-12-23T07:45:02.388Z,4.50
2023-12-23T07:47:29.241Z,4.33
2023-12-23T07:49:55.833Z,4.28
2023-12-23T07:52:22.307Z,4.23
2023-12-23T07:54:49.337Z,4.13
2023-12-23T07:57:15.853Z,4.21
2023-12-23T07:59:45.372Z,4.05
2023-12-23T08:02:12.397Z,4.23
2023-12-23T08:04:39.547Z,4.46
2023-12-23T08:07:06.061Z,4.53
2023-12-23T08:09:32.519Z,4.46
2023-12-23T08:11:59.041Z,4.43
2023-12-23T08:14:25.723Z,4.60
2023-12-23T08:16:53.291Z,4.54
2023-12-23T08:19:22.032Z,4.31
2023-12-23T08:21:49.062Z,4.70
2023-12-23T08:24:15.563Z,4.46
2023-12-23T08:26:42.085Z,4.68
2023-12-23T08:29:08.701Z,4.62
2023-12-23T08:31:35.225Z,4.56
2023-12-23T08:34:02.072Z,4.72
2023-12-23T08:36:30.238Z,4.14
2023-12-23T08:38:56.716Z,4.16
2023-12-23T08:41:23.261Z,3.84
2023-12-23T08:43:49.850Z,4.21
2023-12-23T08:46:16.743Z,4.34
2023-12-23T08:48:43.471Z,4.27
2023-12-23T08:51:09.999Z,4.43
2023-12-23T08:53:37.364Z,4.40
2023-12-23T08:56:04.444Z,4.40
2023-12-23T08:58:31.822Z,4.52
2023-12-23T09:00:58.956Z,4.44
2023-12-23T09:03:25.517Z,4.54
2023-12-23T09:05:52.152Z,4.42
2023-12-23T09:08:18.878Z,4.28
2023-12-23T09:10:45.625Z,4.31
2023-12-23T09:13:12.244Z,4.32
2023-12-23T09:15:38.981Z,4.12
2023-12-23T09:18:06.168Z,4.28
2023-12-23T09:20:33.179Z,4.03
2023-12-23T09:22:59.936Z,4.08
2023-12-23T09:25:26.599Z,3.81
2023-12-23T09:27:53.318Z,3.77
2023-12-23T09:30:19.992Z,4.21
2023-12-23T09:32:46.614Z,4.20
2023-12-23T09:35:13.174Z,4.20
2023-12-23T09:37:39.719Z,4.41
2023-12-23T09:40:06.744Z,4.12
2023-12-23T09:42:33.446Z,4.37
2023-12-23T09:45:00.073Z,4.50
2023-12-23T09:47:27.198Z,3.91
2023-12-23T09:49:53.904Z,4.34
2023-12-23T09:52:20.975Z,4.33
2023-12-23T09:54:51.581Z,4.18
2023-12-23T09:57:18.601Z,4.12
2023-12-23T09:59:45.128Z,4.29
2023-12-23T10:02:11.717Z,4.34
2023-12-23T10:04:38.238Z,4.34
2023-12-23T10:07:04.753Z,4.73
2023-12-23T10:09:31.292Z,4.79
2023-12-23T10:11:57.817Z,4.57
2023-12-23T10:14:26.815Z,5.01
2023-12-23T10:16:54.344Z,5.16
2023-12-23T10:19:21.592Z,5.43
2023-12-23T10:21:49.631Z,5.13
2023-12-23T10:24:16.165Z,5.45
2023-12-23T10:26:43.405Z,5.47
2023-12-23T10:29:11.166Z,5.39
2023-12-23T10:31:38.828Z,5.40
2023-12-23T10:34:09.568Z,5.59
2023-12-23T10:36:39.056Z,5.65
2023-12-23T10:39:14.276Z,5.84
2023-12-23T10:41:49.203Z,5.64
2023-12-23T10:44:18.060Z,5.89
2023-12-23T10:46:47.259Z,5.69
2023-12-23T10:49:14.763Z,5.72
2023-12-23T10:51:41.639Z,5.78
2023-12-23T10:54:11.541Z,5.68
2023-12-23T10:56:40.812Z,5.73
2023-12-23T10:59:08.652Z,5.90
2023-12-23T11:01:37.682Z,5.71
2023-12-23T11:04:04.320Z,6.01
2023-12-23T11:06:36.060Z,6.30
2023-12-23T11:09:03.709Z,6.10
2023-12-23T11:11:31.903Z,5.62
2023-12-23T11:13:58.751Z,5.47
2023-12-23T11:16:25.751Z,5.39
2023-12-23T11:18:55.504Z,5.53
2023-12-23T11:21:22.719Z,5.56
2023-12-23T11:23:49.762Z,5.74
2023-12-23T11:26:42.574Z,5.51
2023-12-23T11:29:13.042Z,5.49
2023-12-23T11:31:39.782Z,5.47
2023-12-23T11:34:14.734Z,5.59
2023-12-23T11:36:46.577Z,5.58
2023-12-23T11:39:14.810Z,5.60
2023-12-23T11:41:43.111Z,5.30
2023-12-23T11:44:13.148Z,5.87
2023-12-23T11:46:41.662Z,5.77
2023-12-23T11:49:10.081Z,5.92
2023-12-23T11:51:39.153Z,5.71
2023-12-23T11:54:06.038Z,5.59
2023-12-23T11:56:32.781Z,5.74
2023-12-23T11:59:02.574Z,6.11
2023-12-23T12:01:32.301Z,6.00
2023-12-23T12:03:58.856Z,6.05
2023-12-23T12:06:26.287Z,6.24
2023-12-23T12:08:55.204Z,6.10
2023-12-23T12:11:24.195Z,5.74
2023-12-23T12:13:51.018Z,5.98
2023-12-23T12:16:18.512Z,6.25
2023-12-23T12:18:45.401Z,5.85
2023-12-23T12:21:12.017Z,5.87
2023-12-23T12:23:38.646Z,6.00
2023-12-23T12:26:05.192Z,5.85
2023-12-23T12:28:32.242Z,5.96
2023-12-23T12:31:09.116Z,5.64
2023-12-23T12:33:36.997Z,6.19
2023-12-23T12:36:04.052Z,6.00
2023-12-23T12:38:30.829Z,5.72
2023-12-23T12:40:58.091Z,5.84
2023-12-23T12:43:30.474Z,5.43
2023-12-23T12:45:57.600Z,5.76
2023-12-23T12:48:24.333Z,5.98
2023-12-23T12:50:54.330Z,5.74
2023-12-23T12:53:21.019Z,5.56
2023-12-23T12:55:47.692Z,5.45
2023-12-23T12:58:14.312Z,5.41
2023-12-23T13:00:40.820Z,6.00
2023-12-23T13:03:09.202Z,5.66
2023-12-23T13:05:36.189Z,5.95
2023-12-23T13:08:03.296Z,5.93
2023-12-23T13:10:31.324Z,6.11
2023-12-23T13:12:57.820Z,6.03
2023-12-23T13:15:24.309Z,5.78
2023-12-23T13:17:51.050Z,5.95
2023-12-23T13:20:17.710Z,6.10
2023-12-23T13:22:46.856Z,5.96
2023-12-23T13:25:14.960Z,5.90
2023-12-23T13:27:41.446Z,6.23
2023-12-23T13:30:08.637Z,6.15
2023-12-23T13:32:35.525Z,6.51
2023-12-23T13:35:05.280Z,6.51
2023-12-23T13:37:32.531Z,6.77
2023-12-23T13:39:59.212Z,6.40
2023-12-23T13:42:25.983Z,6.39
2023-12-23T13:44:52.744Z,6.48
2023-12-23T13:47:19.245Z,6.42
2023-12-23T13:49:46.015Z,6.53
2023-12-23T13:52:15.216Z,6.85
2023-12-23T13:54:41.781Z,6.94
2023-12-23T13:57:09.381Z,6.63
2023-12-23T13:59:35.878Z,6.48
2023-12-23T14:02:02.522Z,6.23
2023-12-23T14:04:29.127Z,6.11
2023-12-23T14:06:55.648Z,6.18
2023-12-23T14:09:22.199Z,6.58
2023-12-23T14:11:48.654Z,5.95
2023-12-23T14:14:15.209Z,6.35
2023-12-23T14:16:41.680Z,6.32
2023-12-23T14:19:08.613Z,6.37
2023-12-23T14:21:35.126Z,6.26
2023-12-23T14:24:01.676Z,6.47
2023-12-23T14:26:28.662Z,6.13
2023-12-23T14:28:57.381Z,6.05
2023-12-23T14:31:25.085Z,5.85
2023-12-23T14:33:54.949Z,5.95
2023-12-23T14:36:21.540Z,6.16
2023-12-23T14:38:48.035Z,5.87
2023-12-23T14:41:15.393Z,5.86
2023-12-23T14:43:41.906Z,5.94
2023-12-23T14:46:09.949Z,5.75
2023-12-23T14:48:36.556Z,6.00
2023-12-23T14:51:03.206Z,5.74
2023-12-23T14:53:29.913Z,5.67
2023-12-23T14:55:56.523Z,5.72
2023-12-23T14:58:23.006Z,5.56
2023-12-23T15:00:49.558Z,5.73
2023-12-23T15:03:16.186Z,6.07
2023-12-23T15:05:42.954Z,5.81
2023-12-23T15:08:09.534Z,5.80
2023-12-23T15:10:36.188Z,5.86
2023-12-23T15:13:05.427Z,5.92
2023-12-23T15:15:33.483Z,5.99
2023-12-23T15:18:00.309Z,5.95
2023-12-23T15:20:26.979Z,5.86
2023-12-23T15:22:53.846Z,6.10
2023-12-23T15:25:20.510Z,6.18
2023-12-23T15:27:47.000Z,5.95
2023-12-23T15:30:14.393Z,5.73
2023-12-23T15:32:41.235Z,5.54
2023-12-23T15:35:08.369Z,5.44
2023-12-23T15:37:35.214Z,5.40
2023-12-23T15:40:01.825Z,5.64
2023-12-23T15:42:28.329Z,5.51
2023-12-23T15:44:54.839Z,5.39
2023-12-23T15:47:21.396Z,5.29
2023-12-23T15:49:48.007Z,5.15
2023-12-23T15:52:14.544Z,5.42
2023-12-23T15:54:41.578Z,5.38
2023-12-23T15:57:08.361Z,5.31
2023-12-23T15:59:34.894Z,5.19
2023-12-23T16:02:03.587Z,5.24
2023-12-23T16:04:30.782Z,5.20
2023-12-23T16:06:57.271Z,5.59
2023-12-23T16:09:23.748Z,4.84
2023-12-23T16:11:50.693Z,5.12
2023-12-23T16:14:17.421Z,5.43
2023-12-23T16:16:43.928Z,5.47
2023-12-23T16:19:10.580Z,5.42
2023-12-23T16:21:37.293Z,5.63
2023-12-23T16:24:03.931Z,5.55
2023-12-23T16:26:30.403Z,5.55
2023-12-23T16:28:56.967Z,5.60
2023-12-23T16:31:23.559Z,5.81
2023-12-23T16:33:50.257Z,5.68
2023-12-23T16:36:16.804Z,5.82
2023-12-23T16:38:43.295Z,5.49
2023-12-23T16:41:13.395Z,5.65
2023-12-23T16:43:40.789Z,5.61
2023-12-23T16:46:09.224Z,5.35
2023-12-23T16:48:36.196Z,5.62
2023-12-23T16:51:02.865Z,5.72
2023-12-23T16:53:29.523Z,5.50
2023-12-23T16:55:56.130Z,5.71
2023-12-23T16:58:22.676Z,5.78
2023-12-23T17:00:49.211Z,5.78
2023-12-23T17:03:18.258Z,5.72
2023-12-23T17:05:45.659Z,5.57
2023-12-23T17:08:12.469Z,5.60
2023-12-23T17:10:39.001Z,5.59
2023-12-23T17:13:05.564Z,5.81
2023-12-23T17:15:32.027Z,5.76
2023-12-23T17:17:58.645Z,5.95
2023-12-23T17:20:25.416Z,5.33
2023-12-23T17:22:55.087Z,5.67
2023-12-23T17:25:22.199Z,5.36
2023-12-23T17:27:48.668Z,5.62
2023-12-23T17:30:15.451Z,5.72
2023-12-23T17:32:42.163Z,5.80
2023-12-23T17:35:10.769Z,5.80
2023-12-23T17:37:37.483Z,6.03
2023-12-23T17:40:04.282Z,5.80
2023-12-23T17:42:30.761Z,5.78
2023-12-23T17:44:57.235Z,5.49
2023-12-23T17:47:26.208Z,5.64
2023-12-23T17:49:53.002Z,5.86
2023-12-23T17:52:20.858Z,5.68
2023-12-23T17:54:48.324Z,5.76
2023-12-23T17:57:16.383Z,5.62
2023-12-23T17:59:43.581Z,5.64
2023-12-23T18:02:10.491Z,5.45
2023-12-23T18:04:37.046Z,5.95
2023-12-23T18:07:03.700Z,5.88
2023-12-23T18:09:30.211Z,5.73
2023-12-23T18:11:56.735Z,5.97
2023-12-23T18:14:23.286Z,5.69
2023-12-23T18:16:49.816Z,5.88
2023-12-23T18:19:16.337Z,5.67
2023-12-23T18:21:42.891Z,5.63
2023-12-23T18:24:09.423Z,5.95
2023-12-23T18:26:36.091Z,6.10
2023-12-23T18:29:02.778Z,6.02
2023-12-23T18:31:29.341Z,6.13
2023-12-23T18:33:56.094Z,5.80
2023-12-23T18:36:22.700Z,5.82
2023-12-23T18:38:49.197Z,5.97
2023-12-23T18:41:15.704Z,5.82
2023-12-23T18:43:42.191Z,6.02
2023-12-23T18:46:09.048Z,6.02
2023-12-23T18:48:35.808Z,6.10
2023-12-23T18:51:03.012Z,6.12
2023-12-23T18:53:29.581Z,5.81
2023-12-23T18:55:56.171Z,6.10
2023-12-23T18:58:22.654Z,5.83
2023-12-23T19:00:49.213Z,6.25
2023-12-23T19:03:16.942Z,6.19
2023-12-23T19:05:43.643Z,5.99
2023-12-23T19:08:10.480Z,5.78
2023-12-23T19:10:37.038Z,5.86
2023-12-23T19:13:03.702Z,6.17
2023-12-23T19:15:30.182Z,5.76
2023-12-23T19:17:56.980Z,5.95
2023-12-23T19:20:23.906Z,5.88
2023-12-23T19:22:50.766Z,5.75
2023-12-23T19:25:17.553Z,5.87
2023-12-23T19:27:44.025Z,5.88
2023-12-23T19:30:11.808Z,6.11
2023-12-23T19:32:41.512Z,5.96
2023-12-23T19:35:08.865Z,5.60
2023-12-23T19:37:35.796Z,5.49
2023-12-23T19:40:09.302Z,5.68
2023-12-23T19:42:36.973Z,5.83
2023-12-23T19:45:03.896Z,5.78
2023-12-23T19:47:30.508Z,5.89
2023-12-23T19:49:57.111Z,5.72
2023-12-23T19:52:23.626Z,5.65
2023-12-23T19:54:50.102Z,5.80
2023-12-23T19:57:16.865Z,5.59
2023-12-23T19:59:43.387Z,5.90
2023-12-23T20:02:09.926Z,5.96
2023-12-23T20:04:37.549Z,5.87
2023-12-23T20:07:04.117Z,6.03
2023-12-23T20:09:30.640Z,6.02
2023-12-23T20:11:58.640Z,5.76
2023-12-23T20:14:25.189Z,5.76
2023-12-23T20:16:51.818Z,5.92
2023-12-23T20:19:18.477Z,5.85
2023-12-23T20:21:45.087Z,5.86
2023-12-23T20:24:12.010Z,5.62
2023-12-23T20:26:38.898Z,5.78
2023-12-23T20:29:05.950Z,6.02
2023-12-23T20:31:32.511Z,5.87
2023-12-23T20:34:00.102Z,5.73
2023-12-23T20:36:26.633Z,5.76
2023-12-23T20:38:53.074Z,5.87
2023-12-23T20:41:19.575Z,5.63
2023-12-23T20:43:46.075Z,5.80
2023-12-23T20:46:14.057Z,5.84
2023-12-23T20:48:40.602Z,5.86
2023-12-23T20:51:09.965Z,5.85
2023-12-23T20:53:36.570Z,5.93
2023-12-23T20:56:03.960Z,5.94
2023-12-23T20:58:33.823Z,5.97
2023-12-23T21:01:01.264Z,5.60
2023-12-23T21:03:27.870Z,5.78
2023-12-23T21:05:54.496Z,5.61
2023-12-23T21:08:21.109Z,5.60
2023-12-23T21:10:47.580Z,5.89
2023-12-23T21:13:14.060Z,6.09
2023-12-23T21:15:40.539Z,5.98
2023-12-23T21:18:07.119Z,6.01
2023-12-23T21:20:33.669Z,5.73
2023-12-23T21:23:00.213Z,5.67
2023-12-23T21:25:26.728Z,5.60
2023-12-23T21:27:53.181Z,5.44
2023-12-23T21:30:19.678Z,5.54
2023-12-23T21:32:46.323Z,5.51
2023-12-23T21:35:13.005Z,5.70
2023-12-23T21:37:39.618Z,5.52
2023-12-23T21:40:06.805Z,5.68
2023-12-23T21:42:33.314Z,5.88
2023-12-23T21:44:59.804Z,5.80
2023-12-23T21:47:26.454Z,5.89
2023-12-23T21:49:53.003Z,5.87
2023-12-23T21:52:19.562Z,5.73
2023-12-23T21:54:46.079Z,5.66
2023-12-23T21:57:12.604Z,5.72
2023-12-23T21:59:39.332Z,5.70
2023-12-23T22:02:06.142Z,5.39
2023-12-23T22:04:32.712Z,5.65
2023-12-23T22:06:59.832Z,5.77
2023-12-23T22:09:26.682Z,5.58
2023-12-23T22:11:53.187Z,5.85
2023-12-23T22:14:19.706Z,6.28
2023-12-23T22:16:46.221Z,6.09
2023-12-23T22:19:12.742Z,5.87
2023-12-23T22:21:39.239Z,5.76
2023-12-23T22:24:06.966Z,5.89
2023-12-23T22:26:33.528Z,5.86
2023-12-23T22:29:00.143Z,6.18
2023-12-23T22:31:26.650Z,5.69
2023-12-23T22:33:53.473Z,6.06
2023-12-23T22:36:21.844Z,6.17
2023-12-23T22:38:50.396Z,6.21
2023-12-23T22:41:17.534Z,6.30
2023-12-23T22:43:44.082Z,6.14
2023-12-23T22:46:10.640Z,6.16
2023-12-23T22:48:37.346Z,5.99
2023-12-23T22:51:06.748Z,6.06
2023-12-23T22:53:35.828Z,5.93
2023-12-23T22:56:04.212Z,5.84
2023-12-23T22:58:32.383Z,5.54
2023-12-23T23:01:00.332Z,5.62
2023-12-23T23:03:27.639Z,5.96
2023-12-23T23:05:54.402Z,6.15
2023-12-23T23:08:21.052Z,5.82
2023-12-23T23:10:47.559Z,5.13
2023-12-23T23:13:14.033Z,5.18
2023-12-23T23:15:40.553Z,5.28
2023-12-23T23:18:07.381Z,5.31
2023-12-23T23:20:34.380Z,5.22
2023-12-23T23:23:00.946Z,5.30
2023-12-23T23:25:27.792Z,5.35
2023-12-23T23:27:54.273Z,4.95
2023-12-23T23:30:20.754Z,5.42
2023-12-23T23:32:47.377Z,5.52
2023-12-23T23:35:14.084Z,5.69
2023-12-23T23:37:41.571Z,5.65
2023-12-23T23:40:08.939Z,5.56
2023-12-23T23:42:35.540Z,5.80
2023-12-23T23:45:02.092Z,5.84
2023-12-23T23:47:28.876Z,5.89
2023-12-23T23:49:55.783Z,6.07
2023-12-23T23:52:22.459Z,5.81
2023-12-23T23:54:48.952Z,5.61
2023-12-23T23:57:17.336Z,5.80
2023-12-23T23:59:44.602Z,5.84
